sensor_id;sensor_type;location;lat;lon;timestamp;P1;durP1;ratioP1;P2;durP2;ratioP2
9834;SDS011;69850;50.942;13.748;2023-07-02T00:02:21;4.80;;;2.03;;
9834;SDS011;69850;50.942;13.748;2023-07-02T00:05:42;3.40;;;2.05;;
9834;SDS011;69850;50.942;13.748;2023-07-02T00:09:03;2.20;;;1.70;;
9834;SDS011;69850;50.942;13.748;2023-07-02T00:12:24;2.83;;;1.75;;
9834;SDS011;69850;50.942;13.748;2023-07-02T00:15:46;3.17;;;1.85;;
9834;SDS011;69850;50.942;13.748;2023-07-02T00:19:07;2.63;;;1.60;;
9834;SDS011;69850;50.942;13.748;2023-07-02T00:22:27;2.90;;;1.60;;
9834;SDS011;69850;50.942;13.748;2023-07-02T00:25:48;2.92;;;1.45;;
9834;SDS011;69850;50.942;13.748;2023-07-02T00:29:09;3.97;;;1.83;;
9834;SDS011;69850;50.942;13.748;2023-07-02T00:32:29;4.70;;;2.00;;
9834;SDS011;69850;50.942;13.748;2023-07-02T00:35:50;1.70;;;1.40;;
9834;SDS011;69850;50.942;13.748;2023-07-02T00:39:11;2.22;;;1.60;;
9834;SDS011;69850;50.942;13.748;2023-07-02T00:42:36;2.30;;;1.45;;
9834;SDS011;69850;50.942;13.748;2023-07-02T00:45:56;2.13;;;1.38;;
9834;SDS011;69850;50.942;13.748;2023-07-02T00:49:18;2.22;;;1.40;;
9834;SDS011;69850;50.942;13.748;2023-07-02T00:52:40;2.08;;;1.52;;
9834;SDS011;69850;50.942;13.748;2023-07-02T00:56:01;2.63;;;1.40;;
9834;SDS011;69850;50.942;13.748;2023-07-02T00:59:21;1.45;;;1.20;;
9834;SDS011;69850;50.942;13.748;2023-07-02T01:02:42;2.15;;;1.30;;
9834;SDS011;69850;50.942;13.748;2023-07-02T01:06:06;1.67;;;1.30;;
9834;SDS011;69850;50.942;13.748;2023-07-02T01:09:27;2.05;;;1.02;;
9834;SDS011;69850;50.942;13.748;2023-07-02T01:12:47;1.75;;;1.25;;
9834;SDS011;69850;50.942;13.748;2023-07-02T01:16:08;1.40;;;1.20;;
9834;SDS011;69850;50.942;13.748;2023-07-02T01:22:55;1.67;;;1.30;;
9834;SDS011;69850;50.942;13.748;2023-07-02T01:26:17;2.53;;;1.20;;
9834;SDS011;69850;50.942;13.748;2023-07-02T01:29:38;1.45;;;1.20;;
9834;SDS011;69850;50.942;13.748;2023-07-02T01:32:59;2.50;;;1.50;;
9834;SDS011;69850;50.942;13.748;2023-07-02T01:36:19;2.03;;;1.35;;
9834;SDS011;69850;50.942;13.748;2023-07-02T01:39:42;3.50;;;1.50;;
9834;SDS011;69850;50.942;13.748;2023-07-02T01:43:03;3.83;;;1.30;;
9834;SDS011;69850;50.942;13.748;2023-07-02T01:46:23;2.63;;;1.25;;
9834;SDS011;69850;50.942;13.748;2023-07-02T01:49:44;1.63;;;1.35;;
9834;SDS011;69850;50.942;13.748;2023-07-02T01:53:04;1.33;;;1.00;;
9834;SDS011;69850;50.942;13.748;2023-07-02T01:56:27;1.88;;;1.20;;
9834;SDS011;69850;50.942;13.748;2023-07-02T01:59:48;1.45;;;1.35;;
9834;SDS011;69850;50.942;13.748;2023-07-02T02:03:09;1.88;;;1.48;;
9834;SDS011;69850;50.942;13.748;2023-07-02T02:06:29;2.08;;;1.50;;
9834;SDS011;69850;50.942;13.748;2023-07-02T02:09:50;2.25;;;1.50;;
9834;SDS011;69850;50.942;13.748;2023-07-02T02:13:10;1.88;;;1.77;;
9834;SDS011;69850;50.942;13.748;2023-07-02T02:16:31;2.83;;;1.50;;
9834;SDS011;69850;50.942;13.748;2023-07-02T02:19:53;1.90;;;1.70;;
9834;SDS011;69850;50.942;13.748;2023-07-02T02:23:14;3.72;;;1.90;;
9834;SDS011;69850;50.942;13.748;2023-07-02T02:26:35;1.88;;;1.77;;
9834;SDS011;69850;50.942;13.748;2023-07-02T02:29:57;1.77;;;1.67;;
9834;SDS011;69850;50.942;13.748;2023-07-02T02:33:18;4.30;;;2.20;;
9834;SDS011;69850;50.942;13.748;2023-07-02T02:36:39;5.90;;;2.20;;
9834;SDS011;69850;50.942;13.748;2023-07-02T02:39:59;4.70;;;2.10;;
9834;SDS011;69850;50.942;13.748;2023-07-02T02:43:20;3.10;;;2.25;;
9834;SDS011;69850;50.942;13.748;2023-07-02T02:46:43;2.60;;;2.40;;
9834;SDS011;69850;50.942;13.748;2023-07-02T02:50:05;2.50;;;2.30;;
9834;SDS011;69850;50.942;13.748;2023-07-02T02:53:26;3.28;;;2.20;;
9834;SDS011;69850;50.942;13.748;2023-07-02T02:56:46;2.33;;;2.13;;
9834;SDS011;69850;50.942;13.748;2023-07-02T03:00:07;4.03;;;2.40;;
9834;SDS011;69850;50.942;13.748;2023-07-02T03:03:29;2.33;;;2.13;;
9834;SDS011;69850;50.942;13.748;2023-07-02T03:06:50;4.57;;;2.25;;
9834;SDS011;69850;50.942;13.748;2023-07-02T03:10:13;2.42;;;2.22;;
9834;SDS011;69850;50.942;13.748;2023-07-02T03:13:33;5.22;;;2.40;;
9834;SDS011;69850;50.942;13.748;2023-07-02T03:16:54;3.28;;;2.40;;
9834;SDS011;69850;50.942;13.748;2023-07-02T03:20:14;2.53;;;2.28;;
9834;SDS011;69850;50.942;13.748;2023-07-02T03:23:35;2.42;;;2.22;;
9834;SDS011;69850;50.942;13.748;2023-07-02T03:26:56;4.03;;;2.17;;
9834;SDS011;69850;50.942;13.748;2023-07-02T03:30:16;2.75;;;2.50;;
9834;SDS011;69850;50.942;13.748;2023-07-02T03:33:37;4.45;;;2.75;;
9834;SDS011;69850;50.942;13.748;2023-07-02T03:36:57;2.67;;;1.98;;
9834;SDS011;69850;50.942;13.748;2023-07-02T03:40:18;2.90;;;2.15;;
9834;SDS011;69850;50.942;13.748;2023-07-02T03:43:39;2.40;;;2.20;;
9834;SDS011;69850;50.942;13.748;2023-07-02T03:46:59;2.90;;;2.20;;
9834;SDS011;69850;50.942;13.748;2023-07-02T03:50:20;3.50;;;2.10;;
9834;SDS011;69850;50.942;13.748;2023-07-02T03:53:41;2.50;;;2.30;;
9834;SDS011;69850;50.942;13.748;2023-07-02T03:57:01;2.50;;;2.30;;
9834;SDS011;69850;50.942;13.748;2023-07-02T04:00:22;2.35;;;2.13;;
9834;SDS011;69850;50.942;13.748;2023-07-02T04:03:48;2.15;;;1.90;;
9834;SDS011;69850;50.942;13.748;2023-07-02T04:07:09;2.20;;;1.85;;
9834;SDS011;69850;50.942;13.748;2023-07-02T04:10:30;2.47;;;1.90;;
9834;SDS011;69850;50.942;13.748;2023-07-02T04:13:50;3.22;;;2.10;;
9834;SDS011;69850;50.942;13.748;2023-07-02T04:17:11;3.63;;;2.05;;
9834;SDS011;69850;50.942;13.748;2023-07-02T04:20:31;2.08;;;1.77;;
9834;SDS011;69850;50.942;13.748;2023-07-02T04:23:52;3.65;;;2.22;;
9834;SDS011;69850;50.942;13.748;2023-07-02T04:27:12;2.85;;;2.15;;
9834;SDS011;69850;50.942;13.748;2023-07-02T04:30:33;3.05;;;1.95;;
9834;SDS011;69850;50.942;13.748;2023-07-02T04:33:54;2.47;;;2.00;;
9834;SDS011;69850;50.942;13.748;2023-07-02T04:37:15;3.60;;;1.88;;
9834;SDS011;69850;50.942;13.748;2023-07-02T04:40:35;2.17;;;1.92;;
9834;SDS011;69850;50.942;13.748;2023-07-02T04:43:56;2.65;;;2.45;;
9834;SDS011;69850;50.942;13.748;2023-07-02T04:47:16;4.53;;;2.47;;
9834;SDS011;69850;50.942;13.748;2023-07-02T04:50:37;4.35;;;2.40;;
9834;SDS011;69850;50.942;13.748;2023-07-02T04:53:58;4.68;;;2.53;;
9834;SDS011;69850;50.942;13.748;2023-07-02T04:57:18;3.70;;;2.63;;
9834;SDS011;69850;50.942;13.748;2023-07-02T05:00:39;5.50;;;4.13;;
9834;SDS011;69850;50.942;13.748;2023-07-02T05:03:59;5.35;;;3.55;;
9834;SDS011;69850;50.942;13.748;2023-07-02T05:07:20;3.63;;;2.60;;
9834;SDS011;69850;50.942;13.748;2023-07-02T05:10:41;2.90;;;2.60;;
9834;SDS011;69850;50.942;13.748;2023-07-02T05:14:01;5.90;;;3.28;;
9834;SDS011;69850;50.942;13.748;2023-07-02T05:17:22;3.25;;;2.95;;
9834;SDS011;69850;50.942;13.748;2023-07-02T05:20:42;5.70;;;3.60;;
9834;SDS011;69850;50.942;13.748;2023-07-02T05:24:03;4.90;;;3.42;;
9834;SDS011;69850;50.942;13.748;2023-07-02T05:27:25;4.82;;;2.70;;
9834;SDS011;69850;50.942;13.748;2023-07-02T05:30:45;4.13;;;2.50;;
9834;SDS011;69850;50.942;13.748;2023-07-02T05:34:06;3.15;;;2.53;;
9834;SDS011;69850;50.942;13.748;2023-07-02T05:37:26;3.10;;;2.72;;
9834;SDS011;69850;50.942;13.748;2023-07-02T05:40:47;3.53;;;2.38;;
9834;SDS011;69850;50.942;13.748;2023-07-02T05:44:07;2.50;;;2.30;;
9834;SDS011;69850;50.942;13.748;2023-07-02T05:47:28;3.28;;;2.40;;
9834;SDS011;69850;50.942;13.748;2023-07-02T05:50:48;3.00;;;2.70;;
9834;SDS011;69850;50.942;13.748;2023-07-02T05:54:09;5.50;;;2.60;;
9834;SDS011;69850;50.942;13.748;2023-07-02T05:57:30;3.47;;;2.70;;
9834;SDS011;69850;50.942;13.748;2023-07-02T06:00:50;3.28;;;2.60;;
9834;SDS011;69850;50.942;13.748;2023-07-02T06:04:11;4.70;;;2.63;;
9834;SDS011;69850;50.942;13.748;2023-07-02T06:07:31;4.22;;;2.92;;
9834;SDS011;69850;50.942;13.748;2023-07-02T06:10:52;2.75;;;2.50;;
9834;SDS011;69850;50.942;13.748;2023-07-02T06:14:12;2.65;;;2.45;;
9834;SDS011;69850;50.942;13.748;2023-07-02T06:17:33;4.28;;;2.60;;
9834;SDS011;69850;50.942;13.748;2023-07-02T06:20:54;2.58;;;2.38;;
9834;SDS011;69850;50.942;13.748;2023-07-02T06:24:15;5.63;;;2.83;;
9834;SDS011;69850;50.942;13.748;2023-07-02T06:27:35;3.30;;;2.80;;
9834;SDS011;69850;50.942;13.748;2023-07-02T06:30:56;3.42;;;2.97;;
9834;SDS011;69850;50.942;13.748;2023-07-02T06:34:16;3.60;;;3.30;;
9834;SDS011;69850;50.942;13.748;2023-07-02T06:37:37;5.18;;;2.90;;
9834;SDS011;69850;50.942;13.748;2023-07-02T06:40:57;4.93;;;3.15;;
9834;SDS011;69850;50.942;13.748;2023-07-02T06:44:18;4.45;;;3.00;;
9834;SDS011;69850;50.942;13.748;2023-07-02T06:47:38;3.67;;;2.88;;
9834;SDS011;69850;50.942;13.748;2023-07-02T06:50:59;3.15;;;2.92;;
9834;SDS011;69850;50.942;13.748;2023-07-02T06:54:19;4.18;;;2.70;;
9834;SDS011;69850;50.942;13.748;2023-07-02T06:57:44;5.22;;;2.60;;
9834;SDS011;69850;50.942;13.748;2023-07-02T07:01:08;2.78;;;2.38;;
9834;SDS011;69850;50.942;13.748;2023-07-02T07:04:29;5.22;;;2.80;;
9834;SDS011;69850;50.942;13.748;2023-07-02T07:07:49;3.08;;;2.65;;
9834;SDS011;69850;50.942;13.748;2023-07-02T07:11:10;6.03;;;2.78;;
9834;SDS011;69850;50.942;13.748;2023-07-02T07:14:30;6.00;;;3.00;;
9834;SDS011;69850;50.942;13.748;2023-07-02T07:17:51;3.50;;;3.20;;
9834;SDS011;69850;50.942;13.748;2023-07-02T07:21:11;3.08;;;2.78;;
9834;SDS011;69850;50.942;13.748;2023-07-02T07:24:32;3.55;;;3.03;;
9834;SDS011;69850;50.942;13.748;2023-07-02T07:27:53;4.10;;;3.50;;
9834;SDS011;69850;50.942;13.748;2023-07-02T07:31:13;4.97;;;3.30;;
9834;SDS011;69850;50.942;13.748;2023-07-02T07:34:34;4.28;;;3.60;;
9834;SDS011;69850;50.942;13.748;2023-07-02T07:37:55;3.80;;;3.08;;
9834;SDS011;69850;50.942;13.748;2023-07-02T07:41:16;3.40;;;3.05;;
9834;SDS011;69850;50.942;13.748;2023-07-02T07:44:36;5.35;;;3.30;;
9834;SDS011;69850;50.942;13.748;2023-07-02T07:47:57;4.25;;;2.90;;
9834;SDS011;69850;50.942;13.748;2023-07-02T07:51:17;5.68;;;2.60;;
9834;SDS011;69850;50.942;13.748;2023-07-02T07:54:38;3.53;;;2.85;;
9834;SDS011;69850;50.942;13.748;2023-07-02T07:57:58;2.95;;;2.75;;
9834;SDS011;69850;50.942;13.748;2023-07-02T08:01:19;4.13;;;2.97;;
9834;SDS011;69850;50.942;13.748;2023-07-02T08:04:40;4.25;;;2.88;;
9834;SDS011;69850;50.942;13.748;2023-07-02T08:08:01;2.95;;;2.53;;
9834;SDS011;69850;50.942;13.748;2023-07-02T08:11:21;3.17;;;2.35;;
9834;SDS011;69850;50.942;13.748;2023-07-02T08:14:42;3.00;;;2.50;;
9834;SDS011;69850;50.942;13.748;2023-07-02T08:18:04;2.95;;;2.30;;
9834;SDS011;69850;50.942;13.748;2023-07-02T08:21:26;3.47;;;2.15;;
9834;SDS011;69850;50.942;13.748;2023-07-02T08:24:47;4.55;;;2.25;;
9834;SDS011;69850;50.942;13.748;2023-07-02T08:28:10;2.92;;;2.28;;
9834;SDS011;69850;50.942;13.748;2023-07-02T08:31:31;2.50;;;2.03;;
9834;SDS011;69850;50.942;13.748;2023-07-02T08:34:52;2.55;;;2.25;;
9834;SDS011;69850;50.942;13.748;2023-07-02T08:38:12;3.80;;;2.25;;
9834;SDS011;69850;50.942;13.748;2023-07-02T08:41:41;3.75;;;2.00;;
9834;SDS011;69850;50.942;13.748;2023-07-02T08:45:04;3.33;;;2.05;;
9834;SDS011;69850;50.942;13.748;2023-07-02T08:48:25;3.17;;;2.33;;
9834;SDS011;69850;50.942;13.748;2023-07-02T08:51:47;3.45;;;2.40;;
9834;SDS011;69850;50.942;13.748;2023-07-02T08:55:07;3.60;;;2.22;;
9834;SDS011;69850;50.942;13.748;2023-07-02T08:58:28;3.63;;;1.83;;
9834;SDS011;69850;50.942;13.748;2023-07-02T09:01:50;4.57;;;2.10;;
9834;SDS011;69850;50.942;13.748;2023-07-02T09:05:12;2.10;;;1.90;;
9834;SDS011;69850;50.942;13.748;2023-07-02T09:08:32;3.67;;;2.10;;
9834;SDS011;69850;50.942;13.748;2023-07-02T09:11:56;1.90;;;1.80;;
9834;SDS011;69850;50.942;13.748;2023-07-02T09:15:17;3.65;;;2.28;;
9834;SDS011;69850;50.942;13.748;2023-07-02T09:18:39;2.65;;;1.98;;
9834;SDS011;69850;50.942;13.748;2023-07-02T09:22:00;5.18;;;2.00;;
9834;SDS011;69850;50.942;13.748;2023-07-02T09:25:21;1.98;;;1.80;;
9834;SDS011;69850;50.942;13.748;2023-07-02T09:28:41;2.53;;;1.80;;
9834;SDS011;69850;50.942;13.748;2023-07-02T09:32:05;2.83;;;2.10;;
9834;SDS011;69850;50.942;13.748;2023-07-02T09:35:29;2.42;;;1.70;;
9834;SDS011;69850;50.942;13.748;2023-07-02T09:38:50;1.95;;;1.75;;
9834;SDS011;69850;50.942;13.748;2023-07-02T09:42:10;3.00;;;1.80;;
9834;SDS011;69850;50.942;13.748;2023-07-02T09:45:31;2.45;;;1.90;;
9834;SDS011;69850;50.942;13.748;2023-07-02T09:48:52;2.38;;;1.77;;
9834;SDS011;69850;50.942;13.748;2023-07-02T09:52:13;4.00;;;2.10;;
9834;SDS011;69850;50.942;13.748;2023-07-02T09:55:34;3.80;;;1.83;;
9834;SDS011;69850;50.942;13.748;2023-07-02T09:58:54;4.60;;;2.22;;
9834;SDS011;69850;50.942;13.748;2023-07-02T10:02:15;4.32;;;1.58;;
9834;SDS011;69850;50.942;13.748;2023-07-02T10:05:36;2.20;;;1.52;;
9834;SDS011;69850;50.942;13.748;2023-07-02T10:08:56;2.30;;;1.73;;
9834;SDS011;69850;50.942;13.748;2023-07-02T10:12:20;3.63;;;1.85;;
9834;SDS011;69850;50.942;13.748;2023-07-02T10:15:42;1.80;;;1.70;;
9834;SDS011;69850;50.942;13.748;2023-07-02T10:19:11;3.65;;;1.70;;
9834;SDS011;69850;50.942;13.748;2023-07-02T10:22:42;2.33;;;1.70;;
9834;SDS011;69850;50.942;13.748;2023-07-02T10:26:13;5.45;;;1.63;;
9834;SDS011;69850;50.942;13.748;2023-07-02T10:29:35;3.17;;;1.80;;
9834;SDS011;69850;50.942;13.748;2023-07-02T10:33:06;3.47;;;1.80;;
9834;SDS011;69850;50.942;13.748;2023-07-02T10:36:36;2.80;;;1.90;;
9834;SDS011;69850;50.942;13.748;2023-07-02T10:39:57;2.10;;;1.73;;
9834;SDS011;69850;50.942;13.748;2023-07-02T10:43:23;2.85;;;1.70;;
9834;SDS011;69850;50.942;13.748;2023-07-02T10:46:46;3.67;;;1.85;;
9834;SDS011;69850;50.942;13.748;2023-07-02T10:50:14;2.42;;;1.50;;
9834;SDS011;69850;50.942;13.748;2023-07-02T10:53:35;3.92;;;1.85;;
9834;SDS011;69850;50.942;13.748;2023-07-02T10:56:56;2.45;;;1.60;;
9834;SDS011;69850;50.942;13.748;2023-07-02T11:00:18;1.65;;;1.55;;
9834;SDS011;69850;50.942;13.748;2023-07-02T11:03:39;3.00;;;1.75;;
9834;SDS011;69850;50.942;13.748;2023-07-02T11:07:00;2.30;;;1.80;;
9834;SDS011;69850;50.942;13.748;2023-07-02T11:10:21;2.22;;;1.65;;
9834;SDS011;69850;50.942;13.748;2023-07-02T11:13:45;5.88;;;1.58;;
9834;SDS011;69850;50.942;13.748;2023-07-02T11:17:12;1.50;;;1.40;;
9834;SDS011;69850;50.942;13.748;2023-07-02T11:20:34;3.83;;;1.65;;
9834;SDS011;69850;50.942;13.748;2023-07-02T11:24:07;5.47;;;1.77;;
9834;SDS011;69850;50.942;13.748;2023-07-02T11:27:28;2.55;;;1.85;;
9834;SDS011;69850;50.942;13.748;2023-07-02T11:30:49;2.88;;;1.60;;
9834;SDS011;69850;50.942;13.748;2023-07-02T11:34:16;2.03;;;1.60;;
9834;SDS011;69850;50.942;13.748;2023-07-02T11:37:38;7.15;;;1.73;;
9834;SDS011;69850;50.942;13.748;2023-07-02T11:40:58;3.40;;;1.70;;
9834;SDS011;69850;50.942;13.748;2023-07-02T11:44:19;2.13;;;1.70;;
9834;SDS011;69850;50.942;13.748;2023-07-02T11:47:40;3.45;;;1.77;;
9834;SDS011;69850;50.942;13.748;2023-07-02T11:51:00;5.82;;;1.70;;
9834;SDS011;69850;50.942;13.748;2023-07-02T11:54:21;3.47;;;1.80;;
9834;SDS011;69850;50.942;13.748;2023-07-02T11:57:42;3.92;;;1.80;;
9834;SDS011;69850;50.942;13.748;2023-07-02T12:01:02;2.88;;;1.83;;
9834;SDS011;69850;50.942;13.748;2023-07-02T12:04:23;3.90;;;1.90;;
9834;SDS011;69850;50.942;13.748;2023-07-02T12:07:43;4.32;;;1.80;;
9834;SDS011;69850;50.942;13.748;2023-07-02T12:11:04;2.10;;;1.88;;
9834;SDS011;69850;50.942;13.748;2023-07-02T12:14:24;4.00;;;2.13;;
9834;SDS011;69850;50.942;13.748;2023-07-02T12:17:45;2.35;;;1.85;;
9834;SDS011;69850;50.942;13.748;2023-07-02T12:21:06;2.85;;;1.98;;
9834;SDS011;69850;50.942;13.748;2023-07-02T12:24:26;4.63;;;2.30;;
9834;SDS011;69850;50.942;13.748;2023-07-02T12:27:47;4.22;;;2.30;;
9834;SDS011;69850;50.942;13.748;2023-07-02T12:31:07;5.55;;;2.10;;
9834;SDS011;69850;50.942;13.748;2023-07-02T12:34:28;2.33;;;2.00;;
9834;SDS011;69850;50.942;13.748;2023-07-02T12:37:50;3.88;;;2.05;;
9834;SDS011;69850;50.942;13.748;2023-07-02T12:41:13;3.05;;;2.30;;
9834;SDS011;69850;50.942;13.748;2023-07-02T12:44:33;3.42;;;2.08;;
9834;SDS011;69850;50.942;13.748;2023-07-02T12:47:54;5.82;;;2.42;;
9834;SDS011;69850;50.942;13.748;2023-07-02T12:51:14;7.85;;;2.50;;
9834;SDS011;69850;50.942;13.748;2023-07-02T12:54:35;3.58;;;2.22;;
9834;SDS011;69850;50.942;13.748;2023-07-02T12:57:55;8.43;;;2.20;;
9834;SDS011;69850;50.942;13.748;2023-07-02T13:01:17;3.17;;;2.15;;
9834;SDS011;69850;50.942;13.748;2023-07-02T13:04:38;15.38;;;11.50;;
9834;SDS011;69850;50.942;13.748;2023-07-02T13:07:58;12.75;;;8.10;;
9834;SDS011;69850;50.942;13.748;2023-07-02T13:11:19;3.58;;;2.20;;
9834;SDS011;69850;50.942;13.748;2023-07-02T13:14:40;5.28;;;2.60;;
9834;SDS011;69850;50.942;13.748;2023-07-02T13:18:00;4.25;;;2.50;;
9834;SDS011;69850;50.942;13.748;2023-07-02T13:21:21;3.20;;;2.33;;
9834;SDS011;69850;50.942;13.748;2023-07-02T13:24:42;8.02;;;2.40;;
9834;SDS011;69850;50.942;13.748;2023-07-02T13:28:03;5.55;;;2.20;;
9834;SDS011;69850;50.942;13.748;2023-07-02T13:31:25;3.38;;;2.50;;
9834;SDS011;69850;50.942;13.748;2023-07-02T13:34:46;3.40;;;2.58;;
9834;SDS011;69850;50.942;13.748;2023-07-02T13:38:06;4.38;;;2.42;;
9834;SDS011;69850;50.942;13.748;2023-07-02T13:41:27;3.60;;;2.38;;
9834;SDS011;69850;50.942;13.748;2023-07-02T13:44:50;2.97;;;2.50;;
9834;SDS011;69850;50.942;13.748;2023-07-02T13:48:11;4.55;;;2.92;;
9834;SDS011;69850;50.942;13.748;2023-07-02T13:51:31;5.57;;;2.88;;
9834;SDS011;69850;50.942;13.748;2023-07-02T13:54:52;3.45;;;2.90;;
9834;SDS011;69850;50.942;13.748;2023-07-02T13:58:12;5.60;;;2.80;;
9834;SDS011;69850;50.942;13.748;2023-07-02T14:01:33;4.65;;;4.10;;
9834;SDS011;69850;50.942;13.748;2023-07-02T14:04:54;5.28;;;2.70;;
9834;SDS011;69850;50.942;13.748;2023-07-02T14:08:14;5.22;;;2.50;;
9834;SDS011;69850;50.942;13.748;2023-07-02T14:11:36;5.35;;;2.47;;
9834;SDS011;69850;50.942;13.748;2023-07-02T14:14:58;5.78;;;2.67;;
9834;SDS011;69850;50.942;13.748;2023-07-02T14:18:20;3.92;;;2.58;;
9834;SDS011;69850;50.942;13.748;2023-07-02T14:21:40;3.83;;;2.45;;
9834;SDS011;69850;50.942;13.748;2023-07-02T14:25:01;5.55;;;2.80;;
9834;SDS011;69850;50.942;13.748;2023-07-02T14:28:23;4.65;;;2.70;;
9834;SDS011;69850;50.942;13.748;2023-07-02T14:31:46;4.07;;;2.70;;
9834;SDS011;69850;50.942;13.748;2023-07-02T14:35:06;6.65;;;3.00;;
9834;SDS011;69850;50.942;13.748;2023-07-02T14:38:27;4.68;;;2.90;;
9834;SDS011;69850;50.942;13.748;2023-07-02T14:41:48;4.93;;;2.95;;
9834;SDS011;69850;50.942;13.748;2023-07-02T14:45:09;6.10;;;3.30;;
9834;SDS011;69850;50.942;13.748;2023-07-02T14:48:30;9.88;;;3.30;;
9834;SDS011;69850;50.942;13.748;2023-07-02T14:51:51;3.65;;;2.78;;
9834;SDS011;69850;50.942;13.748;2023-07-02T14:55:11;9.60;;;3.30;;
9834;SDS011;69850;50.942;13.748;2023-07-02T14:58:32;4.40;;;3.17;;
9834;SDS011;69850;50.942;13.748;2023-07-02T15:01:52;6.57;;;3.30;;
9834;SDS011;69850;50.942;13.748;2023-07-02T15:05:13;5.03;;;3.30;;
9834;SDS011;69850;50.942;13.748;2023-07-02T15:08:34;4.28;;;3.20;;
9834;SDS011;69850;50.942;13.748;2023-07-02T15:11:54;4.78;;;3.40;;
9834;SDS011;69850;50.942;13.748;2023-07-02T15:15:15;6.78;;;3.80;;
9834;SDS011;69850;50.942;13.748;2023-07-02T15:18:36;8.73;;;4.10;;
9834;SDS011;69850;50.942;13.748;2023-07-02T15:21:57;7.28;;;3.97;;
9834;SDS011;69850;50.942;13.748;2023-07-02T15:25:18;12.65;;;4.97;;
9834;SDS011;69850;50.942;13.748;2023-07-02T15:28:38;7.55;;;4.50;;
9834;SDS011;69850;50.942;13.748;2023-07-02T15:31:59;9.18;;;4.68;;
9834;SDS011;69850;50.942;13.748;2023-07-02T15:35:19;8.73;;;4.55;;
9834;SDS011;69850;50.942;13.748;2023-07-02T15:38:40;9.63;;;4.63;;
9834;SDS011;69850;50.942;13.748;2023-07-02T15:42:00;8.35;;;5.05;;
9834;SDS011;69850;50.942;13.748;2023-07-02T15:45:21;7.72;;;4.68;;
9834;SDS011;69850;50.942;13.748;2023-07-02T15:48:42;13.20;;;4.82;;
9834;SDS011;69850;50.942;13.748;2023-07-02T15:52:03;9.88;;;5.88;;
9834;SDS011;69850;50.942;13.748;2023-07-02T15:55:24;50.13;;;27.58;;
9834;SDS011;69850;50.942;13.748;2023-07-02T15:58:44;89.03;;;51.42;;
9834;SDS011;69850;50.942;13.748;2023-07-02T16:02:05;10.13;;;5.10;;
9834;SDS011;69850;50.942;13.748;2023-07-02T16:05:26;8.38;;;5.47;;
9834;SDS011;69850;50.942;13.748;2023-07-02T16:08:47;6.25;;;5.22;;
9834;SDS011;69850;50.942;13.748;2023-07-02T16:12:07;8.43;;;5.32;;
9834;SDS011;69850;50.942;13.748;2023-07-02T16:15:28;7.75;;;5.22;;
9834;SDS011;69850;50.942;13.748;2023-07-02T16:18:49;9.82;;;5.72;;
9834;SDS011;69850;50.942;13.748;2023-07-02T16:22:09;11.35;;;6.38;;
9834;SDS011;69850;50.942;13.748;2023-07-02T16:25:30;10.35;;;6.20;;
9834;SDS011;69850;50.942;13.748;2023-07-02T16:28:51;10.93;;;6.40;;
9834;SDS011;69850;50.942;13.748;2023-07-02T16:32:12;10.20;;;5.82;;
9834;SDS011;69850;50.942;13.748;2023-07-02T16:35:33;12.45;;;6.82;;
9834;SDS011;69850;50.942;13.748;2023-07-02T16:38:54;10.18;;;6.45;;
9834;SDS011;69850;50.942;13.748;2023-07-02T16:42:14;11.93;;;6.40;;
9834;SDS011;69850;50.942;13.748;2023-07-02T16:45:35;10.80;;;6.78;;
9834;SDS011;69850;50.942;13.748;2023-07-02T16:48:55;12.98;;;6.60;;
9834;SDS011;69850;50.942;13.748;2023-07-02T16:52:18;13.13;;;6.85;;
9834;SDS011;69850;50.942;13.748;2023-07-02T16:55:38;11.82;;;6.70;;
9834;SDS011;69850;50.942;13.748;2023-07-02T16:59:01;12.57;;;6.95;;
9834;SDS011;69850;50.942;13.748;2023-07-02T17:02:23;10.82;;;6.97;;
9834;SDS011;69850;50.942;13.748;2023-07-02T17:05:43;12.50;;;7.22;;
9834;SDS011;69850;50.942;13.748;2023-07-02T17:12:50;13.65;;;7.28;;
9834;SDS011;69850;50.942;13.748;2023-07-02T17:16:10;15.07;;;7.50;;
9834;SDS011;69850;50.942;13.748;2023-07-02T17:19:33;11.90;;;7.40;;
9834;SDS011;69850;50.942;13.748;2023-07-02T17:22:55;12.82;;;7.22;;
9834;SDS011;69850;50.942;13.748;2023-07-02T17:26:16;12.45;;;7.38;;
9834;SDS011;69850;50.942;13.748;2023-07-02T17:29:36;11.43;;;7.50;;
9834;SDS011;69850;50.942;13.748;2023-07-02T17:32:57;13.30;;;7.60;;
9834;SDS011;69850;50.942;13.748;2023-07-02T17:36:19;12.98;;;7.68;;
9834;SDS011;69850;50.942;13.748;2023-07-02T17:39:40;13.13;;;7.90;;
9834;SDS011;69850;50.942;13.748;2023-07-02T17:43:01;14.57;;;8.13;;
9834;SDS011;69850;50.942;13.748;2023-07-02T17:46:21;15.10;;;8.05;;
9834;SDS011;69850;50.942;13.748;2023-07-02T17:49:43;12.57;;;8.15;;
9834;SDS011;69850;50.942;13.748;2023-07-02T17:53:05;12.13;;;7.97;;
9834;SDS011;69850;50.942;13.748;2023-07-02T17:56:27;12.88;;;8.27;;
9834;SDS011;69850;50.942;13.748;2023-07-02T17:59:48;16.63;;;8.45;;
9834;SDS011;69850;50.942;13.748;2023-07-02T18:03:08;13.45;;;8.55;;
9834;SDS011;69850;50.942;13.748;2023-07-02T18:06:30;14.93;;;8.98;;
9834;SDS011;69850;50.942;13.748;2023-07-02T18:09:51;15.38;;;8.65;;
9834;SDS011;69850;50.942;13.748;2023-07-02T18:13:12;17.48;;;8.48;;
9834;SDS011;69850;50.942;13.748;2023-07-02T18:16:33;16.55;;;8.70;;
9834;SDS011;69850;50.942;13.748;2023-07-02T18:19:55;14.88;;;9.05;;
9834;SDS011;69850;50.942;13.748;2023-07-02T18:23:17;14.90;;;8.25;;
9834;SDS011;69850;50.942;13.748;2023-07-02T18:26:37;15.30;;;8.85;;
9834;SDS011;69850;50.942;13.748;2023-07-02T18:29:58;17.50;;;9.00;;
9834;SDS011;69850;50.942;13.748;2023-07-02T18:33:19;16.73;;;8.85;;
9834;SDS011;69850;50.942;13.748;2023-07-02T18:41:22;16.02;;;8.63;;
9834;SDS011;69850;50.942;13.748;2023-07-02T18:48:19;14.43;;;9.20;;
9834;SDS011;69850;50.942;13.748;2023-07-02T18:51:40;18.15;;;11.90;;
9834;SDS011;69850;50.942;13.748;2023-07-02T18:55:01;15.10;;;10.30;;
9834;SDS011;69850;50.942;13.748;2023-07-02T18:58:22;13.98;;;9.35;;
9834;SDS011;69850;50.942;13.748;2023-07-02T19:01:43;16.27;;;11.93;;
9834;SDS011;69850;50.942;13.748;2023-07-02T19:05:06;17.33;;;11.35;;
9834;SDS011;69850;50.942;13.748;2023-07-02T19:08:27;14.63;;;9.80;;
9834;SDS011;69850;50.942;13.748;2023-07-02T19:11:48;16.35;;;10.00;;
9834;SDS011;69850;50.942;13.748;2023-07-02T19:15:09;17.60;;;9.52;;
9834;SDS011;69850;50.942;13.748;2023-07-02T19:18:30;16.77;;;9.27;;
9834;SDS011;69850;50.942;13.748;2023-07-02T19:21:51;16.13;;;9.88;;
9834;SDS011;69850;50.942;13.748;2023-07-02T19:25:13;16.92;;;10.23;;
9834;SDS011;69850;50.942;13.748;2023-07-02T19:28:34;18.75;;;9.38;;
9834;SDS011;69850;50.942;13.748;2023-07-02T19:31:55;19.50;;;9.60;;
9834;SDS011;69850;50.942;13.748;2023-07-02T19:35:15;20.42;;;10.00;;
9834;SDS011;69850;50.942;13.748;2023-07-02T19:38:36;15.25;;;9.65;;
9834;SDS011;69850;50.942;13.748;2023-07-02T19:41:57;15.02;;;9.48;;
9834;SDS011;69850;50.942;13.748;2023-07-02T19:45:17;17.20;;;9.98;;
9834;SDS011;69850;50.942;13.748;2023-07-02T19:48:38;16.02;;;9.70;;
9834;SDS011;69850;50.942;13.748;2023-07-02T19:51:59;17.17;;;10.00;;
9834;SDS011;69850;50.942;13.748;2023-07-02T19:55:20;14.60;;;9.63;;
9834;SDS011;69850;50.942;13.748;2023-07-02T19:58:40;18.98;;;9.88;;
9834;SDS011;69850;50.942;13.748;2023-07-02T20:02:01;17.05;;;9.80;;
9834;SDS011;69850;50.942;13.748;2023-07-02T20:05:22;18.30;;;9.55;;
9834;SDS011;69850;50.942;13.748;2023-07-02T20:08:42;19.58;;;10.23;;
9834;SDS011;69850;50.942;13.748;2023-07-02T20:12:04;16.70;;;9.80;;
9834;SDS011;69850;50.942;13.748;2023-07-02T20:15:25;16.52;;;9.82;;
9834;SDS011;69850;50.942;13.748;2023-07-02T20:18:46;19.00;;;10.07;;
9834;SDS011;69850;50.942;13.748;2023-07-02T20:22:08;17.92;;;9.45;;
9834;SDS011;69850;50.942;13.748;2023-07-02T20:25:29;15.48;;;9.38;;